createdAt,value
2023-10-15T00:00:19.480Z,70.22
2023-10-15T00:02:47.238Z,70.47
2023-10-15T00:05:16.432Z,70.12
2023-10-15T00:07:43.612Z,70.11
2023-10-15T00:10:13.984Z,70.04
2023-10-15T00:12:40.427Z,70.44
2023-10-15T00:15:08.719Z,70.61
2023-10-15T00:17:35.985Z,70.75
2023-10-15T00:20:04.261Z,71.27
2023-10-15T00:22:30.773Z,71.34
2023-10-15T00:27:38.344Z,71.89
2023-10-15T00:30:07.394Z,71.77
2023-10-15T00:32:34.098Z,72.02
2023-10-15T00:35:00.624Z,71.93
2023-10-15T00:37:27.384Z,71.83
2023-10-15T00:39:55.171Z,72.31
2023-10-15T00:42:23.485Z,71.99
2023-10-15T00:44:49.933Z,71.97
2023-10-15T00:47:16.991Z,72.22
2023-10-15T00:49:44.705Z,72.47
2023-10-15T00:52:11.762Z,72.63
2023-10-15T00:54:41.212Z,73.04
2023-10-15T00:57:27.567Z,72.62
2023-10-15T00:59:56.267Z,72.82
2023-10-15T01:02:24.094Z,71.78
2023-10-15T01:04:52.319Z,72.07
2023-10-15T01:07:36.079Z,71.97
2023-10-15T01:10:02.563Z,71.59
2023-10-15T01:12:34.928Z,71.91
2023-10-15T01:15:01.521Z,71.92
2023-10-15T01:17:28.220Z,71.91
2023-10-15T01:19:54.968Z,71.88
2023-10-15T01:22:24.601Z,72.09
2023-10-15T01:24:52.892Z,72.75
2023-10-15T01:27:29.118Z,72.59
2023-10-15T01:29:56.437Z,72.94
2023-10-15T01:32:26.533Z,73.34
2023-10-15T01:34:54.525Z,73.92
2023-10-15T01:37:24.246Z,74.13
2023-10-15T01:39:54.460Z,74.38
2023-10-15T01:42:30.208Z,74.21
2023-10-15T01:45:13.210Z,74.36
2023-10-15T01:47:47.131Z,74.68
2023-10-15T01:50:16.588Z,74.71
2023-10-15T01:52:43.543Z,74.65
2023-10-15T01:55:10.120Z,74.83
2023-10-15T01:57:40.559Z,74.71
2023-10-15T02:00:14.935Z,75.00
2023-10-15T02:02:42.644Z,75.06
2023-10-15T02:05:28.082Z,75.20
2023-10-15T02:07:54.632Z,75.50
2023-10-15T02:10:21.073Z,75.70
2023-10-15T02:12:53.052Z,75.95
2023-10-15T02:15:23.992Z,76.36
2023-10-15T02:17:53.597Z,76.46
2023-10-15T02:20:42.851Z,76.53
2023-10-15T02:23:09.394Z,76.70
2023-10-15T02:25:45.971Z,76.63
2023-10-15T02:28:13.101Z,77.01
2023-10-15T02:30:41.439Z,77.00
2023-10-15T02:33:07.969Z,76.96
2023-10-15T02:35:40.742Z,76.97
2023-10-15T02:38:11.829Z,77.12
2023-10-15T02:40:56.917Z,77.01
2023-10-15T02:43:27.562Z,76.99
2023-10-15T02:45:54.287Z,77.20
2023-10-15T02:48:21.302Z,77.55
2023-10-15T02:51:00.848Z,77.82
2023-10-15T02:53:27.934Z,78.01
2023-10-15T02:55:59.266Z,77.98
2023-10-15T02:58:29.664Z,77.98
2023-10-15T03:01:00.897Z,78.17
2023-10-15T03:03:35.587Z,78.28
2023-10-15T03:06:02.491Z,78.20
2023-10-15T03:08:48.815Z,78.42
2023-10-15T03:11:19.515Z,78.44
2023-10-15T03:13:56.113Z,78.58
2023-10-15T03:16:25.001Z,78.67
2023-10-15T03:18:53.369Z,78.89
2023-10-15T03:21:26.587Z,78.95
2023-10-15T03:23:56.796Z,78.98
2023-10-15T03:26:24.042Z,79.05
2023-10-15T03:28:53.651Z,79.32
2023-10-15T03:31:26.632Z,79.62
2023-10-15T03:34:08.503Z,79.43
2023-10-15T03:36:51.645Z,79.58
2023-10-15T03:39:33.808Z,79.44
2023-10-15T03:42:15.578Z,79.55
2023-10-15T03:44:55.259Z,79.39
2023-10-15T03:47:24.019Z,79.44
2023-10-15T03:49:52.580Z,79.42
2023-10-15T03:52:22.469Z,79.12
2023-10-15T03:54:49.592Z,79.06
2023-10-15T03:57:19.122Z,79.08
2023-10-15T03:59:47.793Z,78.89
2023-10-15T04:05:10.087Z,78.93
2023-10-15T04:07:49.822Z,78.56
2023-10-15T04:10:24.296Z,78.23
2023-10-15T04:12:51.107Z,77.99
2023-10-15T04:15:24.047Z,77.90
2023-10-15T04:17:50.750Z,78.42
2023-10-15T04:20:17.998Z,78.41
2023-10-15T04:22:53.038Z,78.14
2023-10-15T04:25:26.434Z,77.90
2023-10-15T04:27:53.681Z,77.96
2023-10-15T04:30:26.986Z,77.99
2023-10-15T04:35:33.949Z,78.12
2023-10-15T04:38:00.804Z,78.45
2023-10-15T04:40:27.787Z,78.27
2023-10-15T04:42:54.184Z,78.26
2023-10-15T04:45:43.327Z,78.17
2023-10-15T04:48:17.000Z,77.98
2023-10-15T04:50:46.835Z,78.03
2023-10-15T04:53:14.544Z,77.88
2023-10-15T04:55:41.866Z,77.87
2023-10-15T04:58:08.417Z,77.90
2023-10-15T05:00:36.613Z,78.03
2023-10-15T05:03:04.269Z,78.04
2023-10-15T05:05:32.735Z,78.06
2023-10-15T05:08:01.541Z,77.53
2023-10-15T05:10:32.214Z,77.38
2023-10-15T05:13:00.605Z,77.36
2023-10-15T05:15:27.537Z,77.30
2023-10-15T05:17:54.021Z,77.43
2023-10-15T05:20:22.066Z,77.38
2023-10-15T05:22:49.055Z,77.39
2023-10-15T05:25:21.738Z,77.39
2023-10-15T05:27:51.080Z,77.16
2023-10-15T05:30:17.656Z,77.40
2023-10-15T05:32:49.474Z,77.22
2023-10-15T05:35:18.985Z,77.04
2023-10-15T05:37:46.713Z,77.34
2023-10-15T05:40:14.042Z,77.21
2023-10-15T05:42:40.993Z,77.36
2023-10-15T05:45:08.201Z,77.18
2023-10-15T05:47:35.211Z,77.02
2023-10-15T05:50:02.353Z,76.87
2023-10-15T05:52:28.844Z,76.86
2023-10-15T05:54:55.282Z,76.38
2023-10-15T05:57:22.488Z,76.50
2023-10-15T05:59:51.831Z,75.65
2023-10-15T06:02:18.399Z,75.30
2023-10-15T06:04:45.121Z,74.90
2023-10-15T06:07:12.041Z,74.44
2023-10-15T06:09:38.507Z,74.42
2023-10-15T06:12:07.066Z,73.71
2023-10-15T06:14:33.825Z,73.47
2023-10-15T06:17:00.875Z,73.17
2023-10-15T06:19:27.464Z,72.34
2023-10-15T06:21:53.900Z,71.95
2023-10-15T06:24:20.305Z,72.00
2023-10-15T06:26:46.725Z,71.14
2023-10-15T06:29:14.833Z,70.91
2023-10-15T06:31:41.402Z,69.89
2023-10-15T06:34:08.319Z,69.43
2023-10-15T06:36:35.307Z,68.93
2023-10-15T06:39:01.724Z,68.73
2023-10-15T06:41:28.428Z,68.20
2023-10-15T06:43:55.091Z,67.98
2023-10-15T06:46:24.413Z,67.48
2023-10-15T06:48:52.711Z,66.89
2023-10-15T06:51:19.106Z,66.81
2023-10-15T06:53:46.062Z,66.46
2023-10-15T06:56:12.465Z,65.70
2023-10-15T06:58:38.971Z,65.37
2023-10-15T07:01:08.373Z,65.03
2023-10-15T07:03:35.193Z,64.38
2023-10-15T07:06:01.697Z,64.26
2023-10-15T07:08:28.127Z,64.41
2023-10-15T07:10:54.633Z,63.49
2023-10-15T07:13:21.207Z,64.06
2023-10-15T07:15:47.584Z,62.90
2023-10-15T07:18:14.305Z,63.08
2023-10-15T07:20:40.879Z,63.16
2023-10-15T07:23:07.483Z,62.22
2023-10-15T07:25:33.987Z,61.97
2023-10-15T07:28:01.412Z,61.73
2023-10-15T07:30:28.947Z,61.04
2023-10-15T07:32:59.345Z,60.98
2023-10-15T07:35:30.631Z,60.11
2023-10-15T07:38:03.709Z,59.95
2023-10-15T07:43:06.339Z,57.98
2023-10-15T07:45:33.602Z,57.98
2023-10-15T07:48:01.461Z,58.43
2023-10-15T07:50:29.197Z,57.60
2023-10-15T07:52:55.992Z,57.61
2023-10-15T07:55:25.540Z,58.02
2023-10-15T07:57:52.743Z,57.36
2023-10-15T08:00:27.369Z,57.07
2023-10-15T08:02:59.052Z,57.78
2023-10-15T08:05:26.650Z,57.26
2023-10-15T08:07:53.510Z,56.59
2023-10-15T08:10:22.009Z,56.71
2023-10-15T08:12:50.336Z,56.62
2023-10-15T08:15:17.240Z,55.94
2023-10-15T08:17:43.782Z,56.23
2023-10-15T08:20:11.006Z,54.53
2023-10-15T08:22:37.839Z,54.28
2023-10-15T08:25:04.346Z,55.45
2023-10-15T08:27:30.802Z,54.72
2023-10-15T08:29:58.426Z,55.55
2023-10-15T08:32:28.358Z,56.06
2023-10-15T08:34:54.966Z,54.85
2023-10-15T08:37:21.712Z,56.04
2023-10-15T08:39:48.106Z,55.09
2023-10-15T08:42:20.069Z,55.18
2023-10-15T08:44:48.343Z,55.22
2023-10-15T08:47:14.931Z,54.73
2023-10-15T08:52:31.089Z,54.66
2023-10-15T08:55:00.216Z,54.45
2023-10-15T08:57:27.248Z,55.09
2023-10-15T08:59:54.378Z,54.75
2023-10-15T09:02:22.057Z,55.66
2023-10-15T09:04:48.695Z,55.71
2023-10-15T09:07:18.632Z,56.68
2023-10-15T09:09:45.146Z,55.59
2023-10-15T09:12:14.422Z,55.00
2023-10-15T09:14:41.751Z,55.77
2023-10-15T09:17:11.002Z,55.24
2023-10-15T09:19:40.990Z,54.42
2023-10-15T09:22:08.141Z,55.02
2023-10-15T09:24:35.196Z,55.83
2023-10-15T09:27:01.626Z,56.23
2023-10-15T09:29:31.528Z,56.68
2023-10-15T09:31:59.902Z,56.96
2023-10-15T09:34:27.430Z,54.90
2023-10-15T09:36:54.815Z,55.65
2023-10-15T09:39:21.464Z,54.89
2023-10-15T09:41:47.901Z,56.10
2023-10-15T09:44:17.006Z,57.19
2023-10-15T09:46:44.323Z,56.03
2023-10-15T09:49:11.378Z,58.40
2023-10-15T09:51:38.184Z,58.59
2023-10-15T09:54:04.741Z,59.65
2023-10-15T09:56:31.808Z,61.37
2023-10-15T09:58:58.290Z,61.36
2023-10-15T10:01:29.523Z,61.30
2023-10-15T10:04:05.806Z,61.27
2023-10-15T10:06:51.147Z,60.50
2023-10-15T10:09:22.804Z,60.16
2023-10-15T10:12:14.985Z,59.95
2023-10-15T10:17:24.516Z,59.86
2023-10-15T10:19:53.649Z,59.79
2023-10-15T10:22:29.706Z,58.78
2023-10-15T10:25:02.255Z,58.15
2023-10-15T10:27:28.732Z,58.32
2023-10-15T10:29:55.508Z,56.57
2023-10-15T10:32:22.746Z,56.79
2023-10-15T10:35:08.028Z,56.24
2023-10-15T10:37:34.515Z,53.54
2023-10-15T10:40:01.090Z,53.43
2023-10-15T10:42:27.571Z,54.76
2023-10-15T10:44:57.532Z,53.09
2023-10-15T10:47:25.918Z,53.74
2023-10-15T10:49:56.975Z,54.83
2023-10-15T10:52:30.880Z,53.47
2023-10-15T10:54:57.890Z,53.85
2023-10-15T10:57:29.160Z,53.30
2023-10-15T10:59:56.087Z,53.82
2023-10-15T11:02:23.564Z,54.58
2023-10-15T11:04:50.084Z,54.19
2023-10-15T11:07:17.838Z,55.43
2023-10-15T11:09:44.771Z,55.63
2023-10-15T11:12:11.569Z,55.28
2023-10-15T11:14:38.189Z,55.49
2023-10-15T11:17:06.556Z,55.66
2023-10-15T11:19:36.070Z,53.87
2023-10-15T11:22:02.792Z,54.31
2023-10-15T11:24:29.819Z,55.12
2023-10-15T11:26:57.315Z,55.32
2023-10-15T11:29:24.535Z,54.13
2023-10-15T11:31:53.139Z,54.64
2023-10-15T11:34:24.163Z,53.85
2023-10-15T11:36:51.870Z,54.80
2023-10-15T11:39:38.834Z,55.03
2023-10-15T11:42:05.859Z,55.07
2023-10-15T11:44:32.520Z,54.92
2023-10-15T11:47:02.058Z,54.33
2023-10-15T11:49:28.555Z,54.44
2023-10-15T11:51:58.282Z,54.93
2023-10-15T11:54:27.150Z,55.56
2023-10-15T11:56:55.686Z,62.80
2023-10-15T11:59:22.874Z,68.80
2023-10-15T12:01:53.116Z,72.12
2023-10-15T12:04:20.459Z,73.38
2023-10-15T12:06:47.785Z,74.32
2023-10-15T12:09:17.703Z,74.26
2023-10-15T12:11:45.858Z,74.00
2023-10-15T12:14:12.873Z,76.73
2023-10-15T12:16:42.664Z,77.21
2023-10-15T12:21:51.683Z,77.70
2023-10-15T12:24:19.730Z,79.04
2023-10-15T12:26:49.895Z,74.72
2023-10-15T12:29:29.691Z,69.78
2023-10-15T12:32:00.252Z,66.09
2023-10-15T12:34:27.130Z,64.56
2023-10-15T12:36:54.368Z,61.74
2023-10-15T12:39:28.582Z,63.47
2023-10-15T12:41:55.653Z,64.68
2023-10-15T12:44:25.532Z,64.42
2023-10-15T12:46:52.968Z,64.12
2023-10-15T12:49:20.834Z,62.84
2023-10-15T12:54:30.129Z,56.15
2023-10-15T12:56:59.701Z,56.64
2023-10-15T12:59:26.139Z,52.61
2023-10-15T13:01:52.866Z,53.09
2023-10-15T13:04:23.156Z,52.31
2023-10-15T13:06:49.782Z,54.73
2023-10-15T13:09:27.269Z,56.17
2023-10-15T13:11:54.481Z,57.25
2023-10-15T13:14:21.060Z,57.95
2023-10-15T13:16:48.035Z,58.88
2023-10-15T13:19:14.734Z,60.00
2023-10-15T13:21:43.626Z,60.18
2023-10-15T13:26:51.613Z,60.67
2023-10-15T13:29:18.070Z,67.88
2023-10-15T13:31:44.616Z,70.20
2023-10-15T13:34:11.124Z,74.06
2023-10-15T13:36:37.568Z,76.91
2023-10-15T13:39:05.239Z,79.31
2023-10-15T13:41:33.741Z,80.91
2023-10-15T13:44:00.251Z,83.53
2023-10-15T13:46:26.722Z,85.11
2023-10-15T13:48:54.935Z,86.63
2023-10-15T13:51:22.935Z,88.24
2023-10-15T13:53:49.377Z,89.12
2023-10-15T13:56:15.887Z,90.99
2023-10-15T13:58:42.863Z,93.41
2023-10-15T14:01:10.375Z,93.68
2023-10-15T14:03:37.032Z,94.35
2023-10-15T14:06:03.831Z,96.42
2023-10-15T14:08:30.344Z,99.01
2023-10-15T14:10:56.840Z,98.51
2023-10-15T14:13:23.197Z,97.82
2023-10-15T14:15:49.611Z,98.28
2023-10-15T14:18:16.393Z,98.92
2023-10-15T14:20:43.513Z,98.82
2023-10-15T14:23:10.632Z,98.81
2023-10-15T14:25:37.232Z,99.67
2023-10-15T14:28:03.811Z,100.00
2023-10-15T14:30:30.233Z,100.00
2023-10-15T14:32:58.466Z,100.00
2023-10-15T14:35:25.167Z,100.00
2023-10-15T14:37:51.745Z,100.00
2023-10-15T14:40:18.236Z,98.77
2023-10-15T14:42:47.430Z,89.61
2023-10-15T14:45:17.335Z,79.93
2023-10-15T14:47:43.935Z,75.36
2023-10-15T14:50:11.722Z,75.47
2023-10-15T14:52:38.568Z,70.25
2023-10-15T14:55:05.143Z,71.34
2023-10-15T14:57:31.794Z,70.21
2023-10-15T14:59:58.409Z,70.28
2023-10-15T15:05:12.172Z,75.01
2023-10-15T15:07:39.497Z,76.60
2023-10-15T15:10:06.849Z,76.24
2023-10-15T15:12:33.422Z,75.88
2023-10-15T15:15:00.064Z,76.18
2023-10-15T15:17:26.469Z,76.85
2023-10-15T15:19:53.117Z,76.16
2023-10-15T15:22:19.513Z,77.04
2023-10-15T15:24:46.619Z,76.74
2023-10-15T15:27:13.030Z,78.75
2023-10-15T15:32:20.544Z,79.97
2023-10-15T15:34:47.160Z,80.57
2023-10-15T15:37:13.569Z,80.31
2023-10-15T15:39:41.355Z,79.37
2023-10-15T15:42:08.022Z,79.29
2023-10-15T15:44:35.391Z,79.45
2023-10-15T15:47:02.007Z,80.69
2023-10-15T15:49:28.717Z,80.08
2023-10-15T15:51:55.586Z,79.28
2023-10-15T15:54:22.488Z,79.48
2023-10-15T15:59:31.112Z,80.36
2023-10-15T16:01:58.116Z,80.79
2023-10-15T16:04:24.885Z,80.65
2023-10-15T16:06:51.466Z,81.07
2023-10-15T16:09:17.836Z,81.67
2023-10-15T16:11:44.329Z,82.09
2023-10-15T16:14:10.745Z,81.92
2023-10-15T16:16:37.189Z,82.11
2023-10-15T16:19:04.743Z,82.63
2023-10-15T16:21:31.237Z,82.87
2023-10-15T16:23:57.635Z,83.20
2023-10-15T16:26:25.345Z,83.62
2023-10-15T16:28:51.937Z,83.62
2023-10-15T16:31:18.533Z,83.85
2023-10-15T16:33:45.164Z,83.73
2023-10-15T16:36:12.702Z,84.61
2023-10-15T16:38:39.204Z,84.59
2023-10-15T16:41:05.792Z,83.89
2023-10-15T16:43:32.415Z,83.54
2023-10-15T16:45:59.368Z,82.68
2023-10-15T16:48:26.467Z,82.48
2023-10-15T16:50:52.964Z,82.00
2023-10-15T16:53:19.706Z,81.40
2023-10-15T16:55:46.292Z,80.93
2023-10-15T16:58:12.726Z,80.57
2023-10-15T17:00:40.750Z,80.58
2023-10-15T17:05:48.734Z,79.24
2023-10-15T17:08:18.064Z,79.73
2023-10-15T17:10:55.853Z,78.40
2023-10-15T17:13:22.350Z,77.80
2023-10-15T17:15:48.763Z,77.77
2023-10-15T17:18:15.774Z,77.55
2023-10-15T17:20:43.044Z,77.44
2023-10-15T17:23:09.397Z,77.86
2023-10-15T17:25:38.906Z,77.93
2023-10-15T17:28:05.542Z,77.64
2023-10-15T17:30:35.376Z,78.06
2023-10-15T17:33:04.063Z,78.58
2023-10-15T17:35:31.130Z,78.12
2023-10-15T17:37:57.750Z,78.45
2023-10-15T17:40:24.221Z,78.49
2023-10-15T17:42:50.594Z,78.80
2023-10-15T17:45:17.127Z,79.52
2023-10-15T17:47:43.631Z,79.35
2023-10-15T17:50:10.486Z,79.50
2023-10-15T17:52:40.184Z,79.89
2023-10-15T17:55:08.247Z,80.63
2023-10-15T17:57:34.763Z,80.76
2023-10-15T18:00:01.288Z,81.00
2023-10-15T18:02:27.859Z,81.29
2023-10-15T18:04:55.362Z,81.26
2023-10-15T18:07:21.763Z,81.67
2023-10-15T18:09:48.296Z,82.03
2023-10-15T18:12:15.568Z,82.02
2023-10-15T18:14:42.903Z,82.45
2023-10-15T18:17:12.707Z,82.47
2023-10-15T18:19:39.956Z,82.83
2023-10-15T18:22:06.434Z,82.88
2023-10-15T18:24:32.893Z,83.04
2023-10-15T18:27:01.189Z,83.34
2023-10-15T18:29:27.819Z,83.43
2023-10-15T18:31:55.914Z,83.42
2023-10-15T18:34:22.318Z,83.49
2023-10-15T18:37:06.773Z,83.64
2023-10-15T18:39:34.461Z,83.97
2023-10-15T18:42:01.071Z,84.20
2023-10-15T18:44:27.857Z,84.04
2023-10-15T18:46:54.760Z,84.42
2023-10-15T18:49:21.406Z,84.61
2023-10-15T18:51:47.860Z,84.28
2023-10-15T18:54:14.436Z,84.20
2023-10-15T18:56:40.841Z,84.30
2023-10-15T18:59:07.226Z,84.34
2023-10-15T19:01:33.768Z,84.58
2023-10-15T19:04:00.677Z,84.85
2023-10-15T19:06:27.574Z,84.91
2023-10-15T19:11:45.802Z,84.85
2023-10-15T19:14:13.731Z,84.74
2023-10-15T19:16:40.643Z,84.29
2023-10-15T19:19:07.093Z,84.52
2023-10-15T19:21:33.696Z,84.33
2023-10-15T19:24:00.098Z,84.20
2023-10-15T19:26:27.733Z,84.21
2023-10-15T19:28:54.168Z,84.42
2023-10-15T19:31:21.098Z,84.83
2023-10-15T19:33:47.681Z,84.84
2023-10-15T19:36:15.392Z,85.21
2023-10-15T19:38:42.017Z,85.42
2023-10-15T19:41:08.515Z,85.71
2023-10-15T19:43:34.944Z,85.86
2023-10-15T19:46:03.094Z,85.86
2023-10-15T19:48:32.687Z,85.87
2023-10-15T19:50:59.201Z,85.68
2023-10-15T19:53:27.772Z,85.58
2023-10-15T19:55:54.633Z,85.36
2023-10-15T19:58:21.174Z,84.85
2023-10-15T20:00:50.523Z,84.83
2023-10-15T20:03:17.754Z,84.82
2023-10-15T20:05:44.330Z,84.86
2023-10-15T20:08:11.319Z,84.42
2023-10-15T20:10:37.794Z,84.26
2023-10-15T20:13:04.323Z,84.52
2023-10-15T20:15:32.256Z,84.53
2023-10-15T20:17:59.912Z,84.30
2023-10-15T20:20:26.665Z,84.20
2023-10-15T20:22:53.091Z,83.37
2023-10-15T20:25:20.167Z,82.77
2023-10-15T20:27:46.817Z,82.56
2023-10-15T20:30:14.197Z,82.73
2023-10-15T20:32:54.669Z,82.39
2023-10-15T20:35:23.683Z,82.35
2023-10-15T20:37:52.142Z,82.65
2023-10-15T20:40:19.083Z,82.59
2023-10-15T20:42:46.728Z,82.25
2023-10-15T20:45:16.132Z,81.75
2023-10-15T20:47:47.234Z,81.81
2023-10-15T20:50:15.992Z,82.18
2023-10-15T20:52:43.773Z,82.30
2023-10-15T20:55:10.964Z,82.32
2023-10-15T20:57:37.934Z,82.82
2023-10-15T21:00:11.595Z,82.54
2023-10-15T21:05:14.220Z,82.89
2023-10-15T21:07:41.764Z,83.23
2023-10-15T21:10:10.863Z,83.55
2023-10-15T21:15:34.450Z,84.14
2023-10-15T21:18:04.024Z,84.20
2023-10-15T21:20:30.544Z,84.17
2023-10-15T21:22:57.059Z,84.17
2023-10-15T21:25:23.534Z,84.22
2023-10-15T21:27:51.026Z,84.71
2023-10-15T21:30:17.481Z,84.72
2023-10-15T21:32:53.770Z,84.76
2023-10-15T21:35:20.361Z,84.71
2023-10-15T21:37:46.787Z,84.82
2023-10-15T21:40:17.443Z,85.04
2023-10-15T21:42:47.804Z,85.15
2023-10-15T21:48:01.326Z,85.27
2023-10-15T21:50:27.907Z,85.68
2023-10-15T21:52:54.252Z,85.94
2023-10-15T21:55:20.673Z,86.31
2023-10-15T21:57:50.510Z,86.28
2023-10-15T22:00:36.086Z,86.28
2023-10-15T22:03:05.608Z,86.56
2023-10-15T22:05:34.991Z,86.69
2023-10-15T22:08:02.255Z,86.77
2023-10-15T22:10:28.823Z,86.55
2023-10-15T22:12:59.538Z,86.59
2023-10-15T22:15:26.592Z,86.73
2023-10-15T22:17:53.723Z,86.72
2023-10-15T22:20:28.274Z,86.56
2023-10-15T22:23:01.588Z,86.47
2023-10-15T22:25:27.967Z,86.36
2023-10-15T22:28:02.754Z,86.17
2023-10-15T22:30:39.282Z,86.08
2023-10-15T22:33:09.088Z,86.19
2023-10-15T22:35:36.606Z,86.63
2023-10-15T22:38:06.247Z,86.63
2023-10-15T22:40:32.660Z,86.63
2023-10-15T22:42:59.113Z,86.54
2023-10-15T22:45:27.423Z,86.69
2023-10-15T22:47:54.156Z,86.58
2023-10-15T22:50:20.602Z,86.70
2023-10-15T22:52:47.332Z,86.76
2023-10-15T22:55:13.748Z,86.51
2023-10-15T22:57:41.221Z,86.44
2023-10-15T23:00:13.142Z,86.19
2023-10-15T23:02:41.160Z,86.16
2023-10-15T23:05:08.291Z,85.87
2023-10-15T23:07:35.420Z,85.90
2023-10-15T23:10:02.054Z,85.82
2023-10-15T23:12:28.468Z,86.05
2023-10-15T23:14:54.969Z,86.17
2023-10-15T23:17:21.554Z,86.46
2023-10-15T23:19:50.374Z,86.37
2023-10-15T23:22:16.852Z,86.14
2023-10-15T23:24:44.012Z,86.28
2023-10-15T23:27:11.160Z,86.25
2023-10-15T23:29:37.716Z,86.47
2023-10-15T23:32:06.216Z,86.81
2023-10-15T23:34:32.885Z,86.96
2023-10-15T23:37:01.444Z,86.99
2023-10-15T23:39:28.040Z,86.98
2023-10-15T23:41:54.587Z,87.06
2023-10-15T23:44:22.807Z,87.12
2023-10-15T23:46:49.723Z,86.79
2023-10-15T23:49:26.502Z,86.57
2023-10-15T23:51:53.048Z,86.54
2023-10-15T23:54:19.892Z,86.96
2023-10-15T23:56:48.350Z,87.07
2023-10-15T23:59:17.078Z,86.95
